sensor_id;sensor_type;location;lat;lon;timestamp;P1;durP1;ratioP1;P2;durP2;ratioP2
62931;SDS011;49037;41.898;25.004;2022-11-15T00:01:34;22.65;;;10.80;;
62931;SDS011;49037;41.898;25.004;2022-11-15T00:04:02;25.05;;;12.15;;
62931;SDS011;49037;41.898;25.004;2022-11-15T00:06:28;21.23;;;10.65;;
62931;SDS011;49037;41.898;25.004;2022-11-15T00:08:54;23.42;;;11.52;;
62931;SDS011;49037;41.898;25.004;2022-11-15T00:11:19;27.58;;;12.60;;
62931;SDS011;49037;41.898;25.004;2022-11-15T00:13:45;24.73;;;11.57;;
62931;SDS011;49037;41.898;25.004;2022-11-15T00:16:10;24.55;;;12.07;;
62931;SDS011;49037;41.898;25.004;2022-11-15T00:18:36;26.42;;;11.55;;
62931;SDS011;49037;41.898;25.004;2022-11-15T00:21:10;21.42;;;11.52;;
62931;SDS011;49037;41.898;25.004;2022-11-15T00:23:36;25.98;;;12.45;;
62931;SDS011;49037;41.898;25.004;2022-11-15T00:26:02;26.98;;;12.73;;
62931;SDS011;49037;41.898;25.004;2022-11-15T00:28:28;29.15;;;12.95;;
62931;SDS011;49037;41.898;25.004;2022-11-15T00:30:53;26.58;;;12.95;;
62931;SDS011;49037;41.898;25.004;2022-11-15T00:33:19;23.52;;;13.00;;
62931;SDS011;49037;41.898;25.004;2022-11-15T00:35:44;23.17;;;10.60;;
62931;SDS011;49037;41.898;25.004;2022-11-15T00:38:10;22.40;;;11.73;;
62931;SDS011;49037;41.898;25.004;2022-11-15T00:40:35;24.02;;;12.25;;
62931;SDS011;49037;41.898;25.004;2022-11-15T00:43:01;21.75;;;11.48;;
62931;SDS011;49037;41.898;25.004;2022-11-15T00:45:26;21.77;;;12.10;;
62931;SDS011;49037;41.898;25.004;2022-11-15T00:47:52;26.05;;;11.65;;
62931;SDS011;49037;41.898;25.004;2022-11-15T00:50:17;26.83;;;12.68;;
62931;SDS011;49037;41.898;25.004;2022-11-15T00:52:43;23.23;;;12.13;;
62931;SDS011;49037;41.898;25.004;2022-11-15T00:55:13;23.02;;;12.13;;
62931;SDS011;49037;41.898;25.004;2022-11-15T00:57:40;24.15;;;11.68;;
62931;SDS011;49037;41.898;25.004;2022-11-15T01:00:05;23.40;;;11.30;;
62931;SDS011;49037;41.898;25.004;2022-11-15T01:02:32;22.95;;;12.63;;
62931;SDS011;49037;41.898;25.004;2022-11-15T01:04:57;24.83;;;11.70;;
62931;SDS011;49037;41.898;25.004;2022-11-15T01:07:23;23.65;;;12.45;;
62931;SDS011;49037;41.898;25.004;2022-11-15T01:09:48;20.77;;;11.00;;
62931;SDS011;49037;41.898;25.004;2022-11-15T01:12:14;24.33;;;11.60;;
62931;SDS011;49037;41.898;25.004;2022-11-15T01:14:39;21.92;;;10.68;;
62931;SDS011;49037;41.898;25.004;2022-11-15T01:17:05;21.35;;;11.70;;
62931;SDS011;49037;41.898;25.004;2022-11-15T01:19:30;23.30;;;12.05;;
62931;SDS011;49037;41.898;25.004;2022-11-15T01:21:55;20.60;;;10.60;;
62931;SDS011;49037;41.898;25.004;2022-11-15T01:24:21;23.17;;;12.02;;
62931;SDS011;49037;41.898;25.004;2022-11-15T01:26:46;21.42;;;11.10;;
62931;SDS011;49037;41.898;25.004;2022-11-15T01:29:12;20.90;;;11.27;;
62931;SDS011;49037;41.898;25.004;2022-11-15T01:31:37;21.20;;;11.88;;
62931;SDS011;49037;41.898;25.004;2022-11-15T01:34:03;25.08;;;11.43;;
62931;SDS011;49037;41.898;25.004;2022-11-15T01:36:28;24.80;;;12.55;;
62931;SDS011;49037;41.898;25.004;2022-11-15T01:38:54;23.80;;;11.75;;
62931;SDS011;49037;41.898;25.004;2022-11-15T01:41:22;21.70;;;11.65;;
62931;SDS011;49037;41.898;25.004;2022-11-15T01:43:52;24.00;;;11.60;;
62931;SDS011;49037;41.898;25.004;2022-11-15T01:46:23;23.83;;;11.55;;
62931;SDS011;49037;41.898;25.004;2022-11-15T01:48:52;20.52;;;11.10;;
62931;SDS011;49037;41.898;25.004;2022-11-15T01:51:20;21.67;;;10.88;;
62931;SDS011;49037;41.898;25.004;2022-11-15T01:53:49;22.38;;;11.73;;
62931;SDS011;49037;41.898;25.004;2022-11-15T01:56:19;23.58;;;11.38;;
62931;SDS011;49037;41.898;25.004;2022-11-15T02:01:14;22.02;;;11.50;;
62931;SDS011;49037;41.898;25.004;2022-11-15T02:03:41;24.10;;;12.32;;
62931;SDS011;49037;41.898;25.004;2022-11-15T02:06:11;20.17;;;11.45;;
62931;SDS011;49037;41.898;25.004;2022-11-15T02:08:37;22.05;;;11.90;;
62931;SDS011;49037;41.898;25.004;2022-11-15T02:11:04;25.88;;;13.13;;
62931;SDS011;49037;41.898;25.004;2022-11-15T02:13:32;26.38;;;12.35;;
62931;SDS011;49037;41.898;25.004;2022-11-15T02:16:00;26.25;;;13.38;;
62931;SDS011;49037;41.898;25.004;2022-11-15T02:18:37;24.50;;;12.02;;
62931;SDS011;49037;41.898;25.004;2022-11-15T02:21:14;25.88;;;12.43;;
62931;SDS011;49037;41.898;25.004;2022-11-15T02:26:54;23.58;;;13.45;;
62931;SDS011;49037;41.898;25.004;2022-11-15T02:39:49;27.20;;;14.60;;
62931;SDS011;49037;41.898;25.004;2022-11-15T02:42:26;32.50;;;17.02;;
62931;SDS011;49037;41.898;25.004;2022-11-15T02:45:20;32.08;;;17.58;;
62931;SDS011;49037;41.898;25.004;2022-11-15T02:47:50;35.58;;;19.00;;
62931;SDS011;49037;41.898;25.004;2022-11-15T02:52:47;37.97;;;20.33;;
62931;SDS011;49037;41.898;25.004;2022-11-15T03:00:58;44.63;;;21.92;;
62931;SDS011;49037;41.898;25.004;2022-11-15T03:06:55;47.30;;;23.55;;
62931;SDS011;49037;41.898;25.004;2022-11-15T03:12:03;40.83;;;21.10;;
62931;SDS011;49037;41.898;25.004;2022-11-15T03:14:53;35.97;;;20.25;;
62931;SDS011;49037;41.898;25.004;2022-11-15T03:17:24;38.90;;;20.80;;
62931;SDS011;49037;41.898;25.004;2022-11-15T03:20:03;40.97;;;20.85;;
62931;SDS011;49037;41.898;25.004;2022-11-15T03:22:33;44.13;;;22.67;;
62931;SDS011;49037;41.898;25.004;2022-11-15T03:25:02;35.22;;;18.80;;
62931;SDS011;49037;41.898;25.004;2022-11-15T03:27:33;38.13;;;19.35;;
62931;SDS011;49037;41.898;25.004;2022-11-15T03:30:05;31.75;;;15.68;;
62931;SDS011;49037;41.898;25.004;2022-11-15T03:32:46;27.92;;;14.77;;
62931;SDS011;49037;41.898;25.004;2022-11-15T03:35:19;27.15;;;14.25;;
62931;SDS011;49037;41.898;25.004;2022-11-15T03:40:33;25.10;;;13.43;;
62931;SDS011;49037;41.898;25.004;2022-11-15T03:45:57;33.85;;;17.10;;
62931;SDS011;49037;41.898;25.004;2022-11-15T03:48:27;40.20;;;19.70;;
62931;SDS011;49037;41.898;25.004;2022-11-15T03:50:58;37.72;;;20.23;;
62931;SDS011;49037;41.898;25.004;2022-11-15T03:53:24;43.45;;;23.63;;
62931;SDS011;49037;41.898;25.004;2022-11-15T03:55:50;45.70;;;23.05;;
62931;SDS011;49037;41.898;25.004;2022-11-15T03:58:15;46.95;;;24.63;;
62931;SDS011;49037;41.898;25.004;2022-11-15T04:00:41;42.95;;;23.27;;
62931;SDS011;49037;41.898;25.004;2022-11-15T04:03:06;44.08;;;23.23;;
62931;SDS011;49037;41.898;25.004;2022-11-15T04:05:33;38.13;;;21.08;;
62931;SDS011;49037;41.898;25.004;2022-11-15T04:07:58;38.00;;;20.05;;
62931;SDS011;49037;41.898;25.004;2022-11-15T04:10:24;36.60;;;19.70;;
62931;SDS011;49037;41.898;25.004;2022-11-15T04:12:49;32.03;;;17.17;;
62931;SDS011;49037;41.898;25.004;2022-11-15T04:15:20;35.08;;;19.38;;
62931;SDS011;49037;41.898;25.004;2022-11-15T04:20:15;33.22;;;17.25;;
62931;SDS011;49037;41.898;25.004;2022-11-15T04:22:59;29.70;;;15.52;;
62931;SDS011;49037;41.898;25.004;2022-11-15T04:25:45;27.95;;;14.95;;
62931;SDS011;49037;41.898;25.004;2022-11-15T04:28:14;29.13;;;14.85;;
62931;SDS011;49037;41.898;25.004;2022-11-15T04:30:40;33.15;;;16.67;;
62931;SDS011;49037;41.898;25.004;2022-11-15T04:33:05;29.02;;;14.18;;
62931;SDS011;49037;41.898;25.004;2022-11-15T04:35:30;22.25;;;12.07;;
62931;SDS011;49037;41.898;25.004;2022-11-15T04:37:56;26.98;;;13.27;;
62931;SDS011;49037;41.898;25.004;2022-11-15T04:40:21;24.92;;;12.43;;
62931;SDS011;49037;41.898;25.004;2022-11-15T04:42:47;24.95;;;13.63;;
62931;SDS011;49037;41.898;25.004;2022-11-15T04:45:12;28.15;;;14.80;;
62931;SDS011;49037;41.898;25.004;2022-11-15T04:47:38;30.02;;;15.15;;
62931;SDS011;49037;41.898;25.004;2022-11-15T04:50:03;26.63;;;14.25;;
62931;SDS011;49037;41.898;25.004;2022-11-15T04:52:29;28.13;;;13.30;;
62931;SDS011;49037;41.898;25.004;2022-11-15T04:54:55;29.88;;;15.52;;
62931;SDS011;49037;41.898;25.004;2022-11-15T04:57:20;25.40;;;13.48;;
62931;SDS011;49037;41.898;25.004;2022-11-15T04:59:46;23.98;;;12.90;;
62931;SDS011;49037;41.898;25.004;2022-11-15T05:02:11;27.30;;;13.02;;
62931;SDS011;49037;41.898;25.004;2022-11-15T05:04:37;20.70;;;11.38;;
62931;SDS011;49037;41.898;25.004;2022-11-15T05:07:02;15.40;;;8.38;;
62931;SDS011;49037;41.898;25.004;2022-11-15T05:09:30;20.88;;;11.63;;
62931;SDS011;49037;41.898;25.004;2022-11-15T05:11:56;22.63;;;10.98;;
62931;SDS011;49037;41.898;25.004;2022-11-15T05:14:21;20.83;;;11.10;;
62931;SDS011;49037;41.898;25.004;2022-11-15T05:16:47;21.58;;;11.32;;
62931;SDS011;49037;41.898;25.004;2022-11-15T05:19:12;25.30;;;12.05;;
62931;SDS011;49037;41.898;25.004;2022-11-15T05:21:38;29.50;;;14.10;;
62931;SDS011;49037;41.898;25.004;2022-11-15T05:24:03;26.45;;;14.02;;
62931;SDS011;49037;41.898;25.004;2022-11-15T05:26:29;27.75;;;14.18;;
62931;SDS011;49037;41.898;25.004;2022-11-15T05:28:55;49.40;;;24.48;;
62931;SDS011;49037;41.898;25.004;2022-11-15T05:31:21;43.40;;;23.35;;
62931;SDS011;49037;41.898;25.004;2022-11-15T05:33:48;54.95;;;26.40;;
62931;SDS011;49037;41.898;25.004;2022-11-15T05:36:33;44.15;;;22.05;;
62931;SDS011;49037;41.898;25.004;2022-11-15T05:39:06;42.38;;;22.23;;
62931;SDS011;49037;41.898;25.004;2022-11-15T05:41:33;30.95;;;16.67;;
62931;SDS011;49037;41.898;25.004;2022-11-15T05:44:02;35.03;;;17.88;;
62931;SDS011;49037;41.898;25.004;2022-11-15T05:46:31;36.45;;;18.13;;
62931;SDS011;49037;41.898;25.004;2022-11-15T05:48:58;34.25;;;16.67;;
62931;SDS011;49037;41.898;25.004;2022-11-15T05:51:24;29.70;;;14.73;;
62931;SDS011;49037;41.898;25.004;2022-11-15T05:53:52;31.42;;;16.65;;
62931;SDS011;49037;41.898;25.004;2022-11-15T05:56:21;41.30;;;21.38;;
62931;SDS011;49037;41.898;25.004;2022-11-15T05:58:46;41.83;;;22.85;;
62931;SDS011;49037;41.898;25.004;2022-11-15T06:01:12;50.25;;;23.45;;
62931;SDS011;49037;41.898;25.004;2022-11-15T06:03:37;42.22;;;22.10;;
62931;SDS011;49037;41.898;25.004;2022-11-15T06:06:03;25.45;;;13.93;;
62931;SDS011;49037;41.898;25.004;2022-11-15T06:08:28;27.92;;;14.85;;
62931;SDS011;49037;41.898;25.004;2022-11-15T06:10:54;31.90;;;16.70;;
62931;SDS011;49037;41.898;25.004;2022-11-15T06:13:19;32.60;;;17.73;;
62931;SDS011;49037;41.898;25.004;2022-11-15T06:15:45;33.35;;;17.60;;
62931;SDS011;49037;41.898;25.004;2022-11-15T06:18:10;38.58;;;18.48;;
62931;SDS011;49037;41.898;25.004;2022-11-15T06:20:36;28.00;;;14.48;;
62931;SDS011;49037;41.898;25.004;2022-11-15T06:23:02;28.30;;;15.75;;
62931;SDS011;49037;41.898;25.004;2022-11-15T06:25:29;36.50;;;16.25;;
62931;SDS011;49037;41.898;25.004;2022-11-15T06:27:55;28.60;;;14.52;;
62931;SDS011;49037;41.898;25.004;2022-11-15T06:30:22;27.95;;;14.70;;
62931;SDS011;49037;41.898;25.004;2022-11-15T06:32:49;29.95;;;15.40;;
62931;SDS011;49037;41.898;25.004;2022-11-15T06:35:14;30.15;;;14.57;;
62931;SDS011;49037;41.898;25.004;2022-11-15T06:37:40;26.02;;;13.55;;
62931;SDS011;49037;41.898;25.004;2022-11-15T06:40:07;30.25;;;14.88;;
62931;SDS011;49037;41.898;25.004;2022-11-15T06:42:33;22.15;;;13.27;;
62931;SDS011;49037;41.898;25.004;2022-11-15T06:44:59;23.70;;;13.70;;
62931;SDS011;49037;41.898;25.004;2022-11-15T06:47:24;28.08;;;14.15;;
62931;SDS011;49037;41.898;25.004;2022-11-15T06:49:50;33.67;;;14.95;;
62931;SDS011;49037;41.898;25.004;2022-11-15T06:52:15;26.08;;;14.43;;
62931;SDS011;49037;41.898;25.004;2022-11-15T06:54:43;29.27;;;13.85;;
62931;SDS011;49037;41.898;25.004;2022-11-15T06:57:09;38.13;;;18.42;;
62931;SDS011;49037;41.898;25.004;2022-11-15T06:59:34;39.00;;;19.67;;
62931;SDS011;49037;41.898;25.004;2022-11-15T07:02:00;40.15;;;21.17;;
62931;SDS011;49037;41.898;25.004;2022-11-15T07:04:25;34.40;;;18.15;;
62931;SDS011;49037;41.898;25.004;2022-11-15T07:06:50;28.95;;;15.57;;
62931;SDS011;49037;41.898;25.004;2022-11-15T07:09:16;29.75;;;15.77;;
62931;SDS011;49037;41.898;25.004;2022-11-15T07:11:41;29.25;;;16.40;;
62931;SDS011;49037;41.898;25.004;2022-11-15T07:14:07;27.02;;;14.05;;
62931;SDS011;49037;41.898;25.004;2022-11-15T07:16:32;29.42;;;17.38;;
62931;SDS011;49037;41.898;25.004;2022-11-15T07:18:58;37.33;;;18.95;;
62931;SDS011;49037;41.898;25.004;2022-11-15T07:21:23;42.67;;;22.90;;
62931;SDS011;49037;41.898;25.004;2022-11-15T07:23:49;45.40;;;24.90;;
62931;SDS011;49037;41.898;25.004;2022-11-15T07:26:14;48.03;;;23.58;;
62931;SDS011;49037;41.898;25.004;2022-11-15T07:28:40;44.88;;;22.95;;
62931;SDS011;49037;41.898;25.004;2022-11-15T07:31:06;47.22;;;21.88;;
62931;SDS011;49037;41.898;25.004;2022-11-15T07:33:33;39.30;;;20.50;;
62931;SDS011;49037;41.898;25.004;2022-11-15T07:35:59;44.90;;;21.33;;
62931;SDS011;49037;41.898;25.004;2022-11-15T07:38:30;43.03;;;21.35;;
62931;SDS011;49037;41.898;25.004;2022-11-15T07:40:58;36.35;;;20.27;;
62931;SDS011;49037;41.898;25.004;2022-11-15T07:43:25;41.50;;;20.38;;
62931;SDS011;49037;41.898;25.004;2022-11-15T07:45:54;42.30;;;21.38;;
62931;SDS011;49037;41.898;25.004;2022-11-15T07:48:20;39.55;;;21.58;;
62931;SDS011;49037;41.898;25.004;2022-11-15T07:50:46;43.47;;;22.23;;
62931;SDS011;49037;41.898;25.004;2022-11-15T07:53:11;39.85;;;21.05;;
62931;SDS011;49037;41.898;25.004;2022-11-15T07:55:37;41.88;;;21.52;;
62931;SDS011;49037;41.898;25.004;2022-11-15T07:58:07;36.85;;;19.38;;
62931;SDS011;49037;41.898;25.004;2022-11-15T08:00:34;38.10;;;20.40;;
62931;SDS011;49037;41.898;25.004;2022-11-15T08:05:30;31.90;;;17.77;;
62931;SDS011;49037;41.898;25.004;2022-11-15T08:07:56;38.10;;;21.17;;
62931;SDS011;49037;41.898;25.004;2022-11-15T08:10:21;34.58;;;18.50;;
62931;SDS011;49037;41.898;25.004;2022-11-15T08:12:47;33.08;;;19.27;;
62931;SDS011;49037;41.898;25.004;2022-11-15T08:15:13;39.35;;;22.00;;
62931;SDS011;49037;41.898;25.004;2022-11-15T08:17:38;36.42;;;21.20;;
62931;SDS011;49037;41.898;25.004;2022-11-15T08:20:04;55.28;;;27.73;;
62931;SDS011;49037;41.898;25.004;2022-11-15T08:22:30;48.50;;;28.75;;
62931;SDS011;49037;41.898;25.004;2022-11-15T08:24:55;58.70;;;31.73;;
62931;SDS011;49037;41.898;25.004;2022-11-15T08:27:20;48.47;;;27.38;;
62931;SDS011;49037;41.898;25.004;2022-11-15T08:29:47;51.63;;;30.92;;
62931;SDS011;49037;41.898;25.004;2022-11-15T08:32:13;46.53;;;25.10;;
62931;SDS011;49037;41.898;25.004;2022-11-15T08:34:38;45.65;;;23.60;;
62931;SDS011;49037;41.898;25.004;2022-11-15T08:37:04;44.60;;;23.85;;
62931;SDS011;49037;41.898;25.004;2022-11-15T08:39:29;45.63;;;24.42;;
62931;SDS011;49037;41.898;25.004;2022-11-15T08:41:55;41.47;;;23.20;;
62931;SDS011;49037;41.898;25.004;2022-11-15T08:44:21;41.08;;;19.20;;
62931;SDS011;49037;41.898;25.004;2022-11-15T08:46:46;42.63;;;22.05;;
62931;SDS011;49037;41.898;25.004;2022-11-15T08:49:12;61.08;;;35.63;;
62931;SDS011;49037;41.898;25.004;2022-11-15T08:51:37;59.33;;;35.70;;
62931;SDS011;49037;41.898;25.004;2022-11-15T08:54:02;57.53;;;31.40;;
62931;SDS011;49037;41.898;25.004;2022-11-15T08:56:28;42.00;;;22.60;;
62931;SDS011;49037;41.898;25.004;2022-11-15T08:58:53;32.95;;;16.52;;
62931;SDS011;49037;41.898;25.004;2022-11-15T09:01:19;37.03;;;19.75;;
62931;SDS011;49037;41.898;25.004;2022-11-15T09:03:45;38.95;;;19.50;;
62931;SDS011;49037;41.898;25.004;2022-11-15T09:06:11;44.03;;;21.05;;
62931;SDS011;49037;41.898;25.004;2022-11-15T09:09:46;39.58;;;21.45;;
62931;SDS011;49037;41.898;25.004;2022-11-15T09:15:34;33.83;;;18.52;;
62931;SDS011;49037;41.898;25.004;2022-11-15T09:17:59;31.63;;;19.50;;
62931;SDS011;49037;41.898;25.004;2022-11-15T09:20:25;33.47;;;19.67;;
62931;SDS011;49037;41.898;25.004;2022-11-15T09:22:50;31.52;;;19.40;;
62931;SDS011;49037;41.898;25.004;2022-11-15T09:25:16;35.00;;;19.48;;
62931;SDS011;49037;41.898;25.004;2022-11-15T09:27:41;36.55;;;21.08;;
62931;SDS011;49037;41.898;25.004;2022-11-15T09:30:07;33.78;;;18.83;;
62931;SDS011;49037;41.898;25.004;2022-11-15T09:32:32;31.17;;;18.27;;
62931;SDS011;49037;41.898;25.004;2022-11-15T09:34:58;28.02;;;16.85;;
62931;SDS011;49037;41.898;25.004;2022-11-15T09:37:23;28.85;;;17.17;;
62931;SDS011;49037;41.898;25.004;2022-11-15T09:39:49;26.45;;;15.98;;
62931;SDS011;49037;41.898;25.004;2022-11-15T09:42:23;32.58;;;19.48;;
62931;SDS011;49037;41.898;25.004;2022-11-15T09:45:15;26.65;;;16.00;;
62931;SDS011;49037;41.898;25.004;2022-11-15T09:50:31;32.58;;;18.92;;
62931;SDS011;49037;41.898;25.004;2022-11-15T09:52:57;28.55;;;15.68;;
62931;SDS011;49037;41.898;25.004;2022-11-15T09:56:03;32.47;;;16.92;;
62931;SDS011;49037;41.898;25.004;2022-11-15T10:04:35;33.53;;;19.27;;
62931;SDS011;49037;41.898;25.004;2022-11-15T10:10:47;31.17;;;15.85;;
62931;SDS011;49037;41.898;25.004;2022-11-15T10:14:50;33.83;;;18.52;;
62931;SDS011;49037;41.898;25.004;2022-11-15T10:17:39;28.80;;;15.50;;
62931;SDS011;49037;41.898;25.004;2022-11-15T10:25:18;37.15;;;18.95;;
62931;SDS011;49037;41.898;25.004;2022-11-15T10:29:27;35.08;;;20.88;;
62931;SDS011;49037;41.898;25.004;2022-11-15T10:31:53;38.30;;;22.42;;
62931;SDS011;49037;41.898;25.004;2022-11-15T10:34:22;26.10;;;14.30;;
62931;SDS011;49037;41.898;25.004;2022-11-15T10:36:59;33.17;;;22.73;;
62931;SDS011;49037;41.898;25.004;2022-11-15T10:40:03;28.17;;;17.25;;
62931;SDS011;49037;41.898;25.004;2022-11-15T10:42:30;28.02;;;17.15;;
62931;SDS011;49037;41.898;25.004;2022-11-15T10:44:55;40.75;;;22.38;;
62931;SDS011;49037;41.898;25.004;2022-11-15T10:47:22;43.35;;;21.45;;
62931;SDS011;49037;41.898;25.004;2022-11-15T10:52:55;50.85;;;28.70;;
62931;SDS011;49037;41.898;25.004;2022-11-15T10:55:28;32.22;;;17.83;;
62931;SDS011;49037;41.898;25.004;2022-11-15T10:58:19;31.75;;;16.85;;
62931;SDS011;49037;41.898;25.004;2022-11-15T11:00:55;64.47;;;30.30;;
62931;SDS011;49037;41.898;25.004;2022-11-15T11:03:26;63.15;;;30.98;;
62931;SDS011;49037;41.898;25.004;2022-11-15T11:06:07;37.88;;;18.50;;
62931;SDS011;49037;41.898;25.004;2022-11-15T11:08:33;31.00;;;15.95;;
62931;SDS011;49037;41.898;25.004;2022-11-15T11:10:59;35.08;;;17.83;;
62931;SDS011;49037;41.898;25.004;2022-11-15T11:18:51;34.03;;;20.05;;
62931;SDS011;49037;41.898;25.004;2022-11-15T11:21:35;31.73;;;17.35;;
62931;SDS011;49037;41.898;25.004;2022-11-15T11:24:18;32.13;;;16.38;;
62931;SDS011;49037;41.898;25.004;2022-11-15T11:27:04;35.92;;;20.08;;
62931;SDS011;49037;41.898;25.004;2022-11-15T11:29:48;30.30;;;16.83;;
62931;SDS011;49037;41.898;25.004;2022-11-15T11:32:29;59.50;;;40.78;;
62931;SDS011;49037;41.898;25.004;2022-11-15T11:37:51;34.45;;;18.83;;
62931;SDS011;49037;41.898;25.004;2022-11-15T11:42:55;32.83;;;18.00;;
62931;SDS011;49037;41.898;25.004;2022-11-15T11:48:57;37.50;;;20.08;;
62931;SDS011;49037;41.898;25.004;2022-11-15T11:51:46;36.67;;;19.70;;
62931;SDS011;49037;41.898;25.004;2022-11-15T11:57:03;34.17;;;20.60;;
62931;SDS011;49037;41.898;25.004;2022-11-15T11:59:43;49.70;;;36.00;;
62931;SDS011;49037;41.898;25.004;2022-11-15T12:02:24;36.55;;;21.38;;
62931;SDS011;49037;41.898;25.004;2022-11-15T12:04:57;36.58;;;19.75;;
62931;SDS011;49037;41.898;25.004;2022-11-15T12:07:32;37.47;;;20.05;;
62931;SDS011;49037;41.898;25.004;2022-11-15T12:10:20;36.38;;;20.75;;
62931;SDS011;49037;41.898;25.004;2022-11-15T12:18:23;31.08;;;17.58;;
62931;SDS011;49037;41.898;25.004;2022-11-15T12:20:53;41.05;;;21.05;;
62931;SDS011;49037;41.898;25.004;2022-11-15T12:23:28;41.83;;;21.65;;
62931;SDS011;49037;41.898;25.004;2022-11-15T12:26:02;41.97;;;22.05;;
62931;SDS011;49037;41.898;25.004;2022-11-15T12:28:36;38.78;;;20.00;;
62931;SDS011;49037;41.898;25.004;2022-11-15T12:31:35;38.83;;;20.15;;
62931;SDS011;49037;41.898;25.004;2022-11-15T12:34:05;36.70;;;19.88;;
62931;SDS011;49037;41.898;25.004;2022-11-15T12:36:53;40.67;;;21.27;;
62931;SDS011;49037;41.898;25.004;2022-11-15T12:39:19;40.10;;;20.25;;
62931;SDS011;49037;41.898;25.004;2022-11-15T12:46:58;40.22;;;22.30;;
62931;SDS011;49037;41.898;25.004;2022-11-15T13:17:43;36.95;;;21.48;;
62931;SDS011;49037;41.898;25.004;2022-11-15T13:20:20;39.22;;;21.48;;
62931;SDS011;49037;41.898;25.004;2022-11-15T13:22:50;37.28;;;20.35;;
62931;SDS011;49037;41.898;25.004;2022-11-15T13:30:40;51.88;;;25.33;;
62931;SDS011;49037;41.898;25.004;2022-11-15T13:38:27;40.33;;;20.73;;
62931;SDS011;49037;41.898;25.004;2022-11-15T13:40:55;52.33;;;26.80;;
62931;SDS011;49037;41.898;25.004;2022-11-15T13:49:05;41.33;;;21.88;;
62931;SDS011;49037;41.898;25.004;2022-11-15T13:57:00;47.60;;;26.35;;
62931;SDS011;49037;41.898;25.004;2022-11-15T13:59:29;45.08;;;22.95;;
62931;SDS011;49037;41.898;25.004;2022-11-15T14:02:01;45.25;;;23.17;;
62931;SDS011;49037;41.898;25.004;2022-11-15T14:07:03;44.60;;;22.75;;
62931;SDS011;49037;41.898;25.004;2022-11-15T14:09:32;40.85;;;20.77;;
62931;SDS011;49037;41.898;25.004;2022-11-15T14:12:00;42.35;;;22.63;;
62931;SDS011;49037;41.898;25.004;2022-11-15T14:14:28;43.35;;;21.70;;
62931;SDS011;49037;41.898;25.004;2022-11-15T14:16:55;46.47;;;26.35;;
62931;SDS011;49037;41.898;25.004;2022-11-15T14:22:09;54.15;;;25.90;;
62931;SDS011;49037;41.898;25.004;2022-11-15T14:24:36;62.40;;;29.35;;
62931;SDS011;49037;41.898;25.004;2022-11-15T14:27:21;46.70;;;24.52;;
62931;SDS011;49037;41.898;25.004;2022-11-15T14:29:49;56.10;;;26.33;;
62931;SDS011;49037;41.898;25.004;2022-11-15T14:32:17;53.80;;;24.65;;
62931;SDS011;49037;41.898;25.004;2022-11-15T14:34:44;43.00;;;23.40;;
62931;SDS011;49037;41.898;25.004;2022-11-15T14:39:45;44.63;;;24.85;;
62931;SDS011;49037;41.898;25.004;2022-11-15T14:42:10;47.95;;;26.67;;
62931;SDS011;49037;41.898;25.004;2022-11-15T14:44:36;52.80;;;28.67;;
62931;SDS011;49037;41.898;25.004;2022-11-15T14:47:01;50.20;;;27.25;;
62931;SDS011;49037;41.898;25.004;2022-11-15T14:49:27;56.45;;;29.42;;
62931;SDS011;49037;41.898;25.004;2022-11-15T14:51:52;51.17;;;26.90;;
62931;SDS011;49037;41.898;25.004;2022-11-15T14:54:18;54.63;;;28.20;;
62931;SDS011;49037;41.898;25.004;2022-11-15T14:56:43;49.85;;;25.27;;
62931;SDS011;49037;41.898;25.004;2022-11-15T14:59:09;57.67;;;30.88;;
62931;SDS011;49037;41.898;25.004;2022-11-15T15:01:34;59.75;;;30.25;;
62931;SDS011;49037;41.898;25.004;2022-11-15T15:04:00;50.67;;;27.02;;
62931;SDS011;49037;41.898;25.004;2022-11-15T15:06:25;56.63;;;29.73;;
62931;SDS011;49037;41.898;25.004;2022-11-15T15:08:51;49.50;;;26.48;;
62931;SDS011;49037;41.898;25.004;2022-11-15T15:11:19;73.57;;;40.97;;
62931;SDS011;49037;41.898;25.004;2022-11-15T15:13:46;75.72;;;40.85;;
62931;SDS011;49037;41.898;25.004;2022-11-15T15:16:12;192.15;;;94.18;;
62931;SDS011;49037;41.898;25.004;2022-11-15T15:18:38;92.88;;;45.85;;
62931;SDS011;49037;41.898;25.004;2022-11-15T15:21:04;49.22;;;26.38;;
62931;SDS011;49037;41.898;25.004;2022-11-15T15:23:47;38.30;;;22.33;;
62931;SDS011;49037;41.898;25.004;2022-11-15T15:26:13;44.05;;;22.88;;
62931;SDS011;49037;41.898;25.004;2022-11-15T15:28:38;35.95;;;21.17;;
62931;SDS011;49037;41.898;25.004;2022-11-15T15:31:04;40.92;;;20.70;;
62931;SDS011;49037;41.898;25.004;2022-11-15T15:33:30;39.88;;;19.40;;
62931;SDS011;49037;41.898;25.004;2022-11-15T15:35:56;42.40;;;21.58;;
62931;SDS011;49037;41.898;25.004;2022-11-15T15:38:22;43.10;;;21.52;;
62931;SDS011;49037;41.898;25.004;2022-11-15T15:40:47;43.45;;;22.95;;
62931;SDS011;49037;41.898;25.004;2022-11-15T15:43:13;46.75;;;28.70;;
62931;SDS011;49037;41.898;25.004;2022-11-15T15:45:39;42.13;;;23.95;;
62931;SDS011;49037;41.898;25.004;2022-11-15T15:48:09;45.53;;;25.02;;
62931;SDS011;49037;41.898;25.004;2022-11-15T15:50:37;41.70;;;25.25;;
62931;SDS011;49037;41.898;25.004;2022-11-15T15:53:03;45.25;;;26.30;;
62931;SDS011;49037;41.898;25.004;2022-11-15T15:55:30;55.83;;;29.23;;
62931;SDS011;49037;41.898;25.004;2022-11-15T15:57:55;65.38;;;32.95;;
62931;SDS011;49037;41.898;25.004;2022-11-15T16:00:21;66.65;;;33.97;;
62931;SDS011;49037;41.898;25.004;2022-11-15T16:02:49;62.47;;;33.85;;
62931;SDS011;49037;41.898;25.004;2022-11-15T16:05:15;60.75;;;32.05;;
62931;SDS011;49037;41.898;25.004;2022-11-15T16:07:42;52.88;;;29.45;;
62931;SDS011;49037;41.898;25.004;2022-11-15T16:10:27;51.22;;;31.25;;
62931;SDS011;49037;41.898;25.004;2022-11-15T16:12:54;54.13;;;31.17;;
62931;SDS011;49037;41.898;25.004;2022-11-15T16:15:21;54.92;;;32.10;;
62931;SDS011;49037;41.898;25.004;2022-11-15T16:17:53;54.88;;;29.35;;
62931;SDS011;49037;41.898;25.004;2022-11-15T16:20:22;55.38;;;27.92;;
62931;SDS011;49037;41.898;25.004;2022-11-15T16:23:05;49.80;;;25.90;;
62931;SDS011;49037;41.898;25.004;2022-11-15T16:25:38;47.10;;;24.40;;
62931;SDS011;49037;41.898;25.004;2022-11-15T16:31:09;46.80;;;24.58;;
62931;SDS011;49037;41.898;25.004;2022-11-15T16:33:35;49.00;;;25.98;;
62931;SDS011;49037;41.898;25.004;2022-11-15T16:36:01;52.55;;;28.85;;
62931;SDS011;49037;41.898;25.004;2022-11-15T16:38:28;53.28;;;29.40;;
62931;SDS011;49037;41.898;25.004;2022-11-15T16:40:53;55.03;;;29.42;;
62931;SDS011;49037;41.898;25.004;2022-11-15T16:43:19;47.55;;;26.60;;
62931;SDS011;49037;41.898;25.004;2022-11-15T16:45:44;49.70;;;28.20;;
62931;SDS011;49037;41.898;25.004;2022-11-15T16:48:24;41.90;;;21.95;;
62931;SDS011;49037;41.898;25.004;2022-11-15T16:50:53;45.60;;;25.60;;
62931;SDS011;49037;41.898;25.004;2022-11-15T16:53:20;45.33;;;23.95;;
62931;SDS011;49037;41.898;25.004;2022-11-15T16:55:45;45.40;;;23.02;;